Terminal Aerodrome Forecast
Issued by NWS

Home | Current Version | Previous Version | Text Only | Print | Product List | Glossary On
Versions: 1 2 3 4 5 6 7 8 9 10 11 12 13 14 15
000
FTAK31 PAJN 310520
TAFASI
TAF
PASI 310520Z 3106/0106 VRB04KT P6SM VCSH SCT060 BKN090
     FM311400 03003KT P6SM -SHRA SCT040 OVC080
     FM312000 34005KT P6SM SCT040 BKN080=

USA.gov is the U.S. government's official web portal to all federal, state and local government web resources and services.